Euskara    
Meteorología y climatología de Navarra
Datos de la estación - Meteo Navarra

Estación de Sartaguda GN

Altitud 310 m.


Datos desde el 23/02/2021 hasta el 24/02/2021 en horario solar
Los datos son PROVISIONALES

Anterior Página 1 de 1 Siguiente Descargar: Formato para Excel 2000 o superior   Formato csv   Formato para OpenOffice Calc
Fecha Temperatura Humedad relativa Radiación global Insolación Precipitación Vel. viento 10 m Vel. viento 10 m Dir. viento 10 m
°C % W/m² s l/m² m/s km/h °
23/02/2021 0:00 7.5 91 0.0 0 0.0 0.1 0.2 161
23/02/2021 0:10 7.4 91 0.0 0 0.0 1.1 4.0 79
23/02/2021 0:20 7.4 90 0.0 0 0.0 0.5 1.9 58
23/02/2021 0:30 7.4 92 0.0 0 0.0 0.6 2.1 166
23/02/2021 0:40 7.3 92 0.0 0 0.0 0.6 2.2 156
23/02/2021 0:50 7.3 92 0.0 0 0.0 0.9 3.1 154
23/02/2021 1:00 7.2 92 0.0 0 0.0 0.7 2.7 152
23/02/2021 1:10 7.1 92 0.0 0 0.0 0.8 2.8 151
23/02/2021 1:20 6.9 92 0.0 0 0.0 1.3 4.5 106
23/02/2021 1:30 6.5 93 0.0 0 0.0 0.5 1.6 133
23/02/2021 1:40 6.5 93 0.0 0 0.0 0.2 0.8 194
23/02/2021 1:50 6.5 93 0.0 0 0.0 0.7 2.6 129
23/02/2021 2:00 6.5 94 0.0 0 0.0 0.9 3.1 152
23/02/2021 2:10 6.6 95 0.0 0 0.0 1.2 4.2 163
23/02/2021 2:20 6.7 95 0.0 0 0.0 0.4 1.4 210
23/02/2021 2:30 6.7 95 0.0 0 0.0 0.3 0.9 193
23/02/2021 2:40 6.7 95 0.0 0 0.0 0.6 2.1 207
23/02/2021 2:50 6.9 95 0.0 0 0.0 0.5 1.6 207
23/02/2021 3:00 6.8 94 0.0 0 0.0 0.8 3.0 113
23/02/2021 3:10 6.9 94 0.0 0 0.0 1.3 4.5 104
23/02/2021 3:20 7.0 93 0.0 0 0.0 1.1 3.8 106
23/02/2021 3:30 7.0 93 0.0 0 0.0 1.1 4.0 77
23/02/2021 3:40 7.0 93 0.0 0 0.0 1.3 4.7 73
23/02/2021 3:50 7.0 93 0.0 0 0.0 0.8 2.8 83
23/02/2021 4:00 6.9 93 0.0 0 0.0 1.2 4.4 124
23/02/2021 4:10 6.6 92 0.0 0 0.0 1.8 6.4 147
23/02/2021 4:20 6.3 93 0.0 0 0.0 2.0 7.2 147
23/02/2021 4:30 6.2 93 0.0 0 0.0 1.4 5.2 150
23/02/2021 4:40 5.9 93 0.0 0 0.0 0.9 3.2 160
23/02/2021 4:50 5.5 94 0.0 0 0.0 2.0 7.0 187
23/02/2021 5:00 5.3 94 0.0 0 0.0 1.8 6.4 193
23/02/2021 5:10 5.0 94 0.0 0 0.0 2.0 7.3 103
23/02/2021 5:20 5.5 92 0.0 0 0.0 2.0 7.3 143
23/02/2021 5:30 5.1 91 0.0 0 0.0 2.1 7.7 132
23/02/2021 5:40 4.8 91 0.0 0 0.0 1.8 6.5 155
23/02/2021 5:50 4.6 92 0.0 0 0.0 1.6 5.8 184
23/02/2021 6:00 4.4 92 0.0 0 0.0 2.2 7.8 187
23/02/2021 6:10 4.5 90 0.0 0 0.0 1.2 4.4 182
23/02/2021 6:20 4.1 90 0.0 0 0.0 1.5 5.5 205
23/02/2021 6:30 4.0 90 0.0 0 0.0 1.2 4.4 139
23/02/2021 6:40 3.9 90 0.0 0 0.0 2.1 7.7 134
23/02/2021 6:50 4.1 93 0.0 0 0.0 2.8 10.0 136
23/02/2021 7:00 4.3 94 0.0 0 0.0 2.3 8.4 129
23/02/2021 7:10 4.3 94 16.8 2 0.0 2.8 10.0 129
23/02/2021 7:20 4.7 95 41.9 600 0.0 2.6 9.2 132
23/02/2021 7:30 4.7 94 66.4 600 0.0 2.6 9.5 144
23/02/2021 7:40 5.2 94 92.6 600 0.0 2.3 8.3 148
23/02/2021 7:50 5.7 94 119.8 600 0.0 2.1 7.6 150
23/02/2021 8:00 6.2 93 148.3 600 0.0 2.8 10.0 141
23/02/2021 8:10 6.5 92 179.2 600 0.0 2.7 9.6 147
23/02/2021 8:20 7.1 89 210.2 600 0.0 2.3 8.1 117
23/02/2021 8:30 7.3 88 241.8 600 0.0 2.5 8.8 109
23/02/2021 8:40 7.7 86 273.1 600 0.0 2.3 8.4 115
23/02/2021 8:50 7.9 84 303.2 600 0.0 3.9 14.0 110
23/02/2021 9:00 8.3 84 332.8 600 0.0 4.3 15.4 114
23/02/2021 9:10 8.7 82 360.4 600 0.0 4.0 14.3 111
23/02/2021 9:20 9.1 80 387.2 600 0.0 4.4 15.7 115
23/02/2021 9:30 9.6 79 413.6 600 0.0 4.3 15.6 121
23/02/2021 9:40 10.2 77 438.1 600 0.0 4.3 15.4 127
23/02/2021 9:50 10.7 75 465.6 600 0.0 4.6 16.4 117
23/02/2021 10:00 10.8 75 491.6 600 0.0 6.0 21.7 118
23/02/2021 10:10 10.8 75 514.4 600 0.0 5.6 20.2 124
23/02/2021 10:20 11.3 75 534.3 600 0.0 6.0 21.6 123
23/02/2021 10:30 11.3 74 555.0 600 0.0 6.3 22.8 122
23/02/2021 10:40 11.4 74 573.7 600 0.0 5.8 20.8 123
23/02/2021 10:50 11.5 73 589.2 600 0.0 6.4 23.2 121
23/02/2021 11:00 11.7 73 602.4 600 0.0 6.4 22.9 125
23/02/2021 11:10 11.9 72 616.8 600 0.0 6.2 22.2 121
23/02/2021 11:20 12.3 70 631.0 600 0.0 6.3 22.7 122
23/02/2021 11:30 12.6 68 640.8 600 0.0 6.6 23.7 123
23/02/2021 11:40 12.9 68 649.7 600 0.0 5.9 21.2 124
23/02/2021 11:50 13.2 68 658.6 600 0.0 5.8 20.7 125
23/02/2021 12:00 13.3 67 664.5 600 0.0 6.5 23.4 122
23/02/2021 12:10 13.4 67 664.1 600 0.0 6.8 24.6 121
23/02/2021 12:20 13.6 67 667.1 600 0.0 6.4 23.1 127
23/02/2021 12:30 13.9 66 667.0 600 0.0 6.3 22.7 125
23/02/2021 12:40 14.0 64 666.0 600 0.0 6.9 24.7 126
23/02/2021 12:50 14.0 64 663.4 600 0.0 6.9 24.7 123
23/02/2021 13:00 14.3 64 660.5 600 0.0 6.6 23.6 134
23/02/2021 13:10 14.3 62 652.8 600 0.0 6.9 24.8 131
23/02/2021 13:20 14.4 61 645.1 600 0.0 6.6 23.9 124
23/02/2021 13:30 14.7 60 634.3 600 0.0 5.9 21.2 130
23/02/2021 13:40 14.8 58 621.9 600 0.0 7.0 25.2 125
23/02/2021 13:50 14.6 58 604.0 600 0.0 7.4 26.7 132
23/02/2021 14:00 14.7 58 590.5 600 0.0 6.8 24.3 124
23/02/2021 14:10 14.9 57 574.4 600 0.0 7.3 26.4 122
23/02/2021 14:20 15.0 57 557.1 600 0.0 6.7 24.1 130
23/02/2021 14:30 14.9 55 536.1 600 0.0 8.3 29.9 131
23/02/2021 14:40 14.8 56 510.0 600 0.0 7.7 27.8 125
23/02/2021 14:50 14.8 57 493.1 600 0.0 7.1 25.5 121
23/02/2021 15:00 14.8 58 470.6 600 0.0 7.1 25.5 123
23/02/2021 15:10 14.7 58 446.0 600 0.0 6.9 24.7 116
23/02/2021 15:20 14.6 57 422.4 600 0.0 7.1 25.7 121
23/02/2021 15:30 14.7 58 395.3 600 0.0 6.5 23.2 126
23/02/2021 15:40 14.8 58 366.8 600 0.0 6.8 24.6 121
23/02/2021 15:50 14.6 58 337.0 600 0.0 7.2 26.0 126
23/02/2021 16:00 14.6 58 308.3 600 0.0 7.3 26.2 124
23/02/2021 16:10 14.5 58 273.6 600 0.0 6.9 24.9 132
23/02/2021 16:20 14.4 59 242.7 600 0.0 6.9 24.9 134
23/02/2021 16:30 14.3 59 210.7 600 0.0 6.8 24.5 136
23/02/2021 16:40 14.2 59 180.3 600 0.0 6.6 23.9 133
23/02/2021 16:50 14.0 58 150.2 600 0.0 6.8 24.6 132
23/02/2021 17:00 13.8 58 122.7 600 0.0 6.4 23.0 131
23/02/2021 17:10 13.6 60 94.1 600 0.0 5.2 18.7 131
23/02/2021 17:20 13.4 60 70.8 600 0.0 5.5 19.8 131
23/02/2021 17:30 13.1 61 48.9 600 0.0 4.9 17.6 132
23/02/2021 17:40 12.8 63 24.5 76 0.0 4.4 15.9 135
23/02/2021 17:50 12.3 64 7.8 0 0.0 3.7 13.3 143
23/02/2021 18:00 11.7 66 0.0 0 0.0 2.9 10.4 152
23/02/2021 18:10 11.2 68 0.0 0 0.0 3.0 10.9 153
23/02/2021 18:20 11.1 69 0.0 0 0.0 3.7 13.2 160
23/02/2021 18:30 11.0 69 0.0 0 0.0 4.4 15.7 155
23/02/2021 18:40 10.7 71 0.0 0 0.0 4.6 16.5 151
23/02/2021 18:50 10.1 75 0.0 0 0.0 4.4 15.8 142
23/02/2021 19:00 9.9 76 0.0 0 0.0 4.5 16.2 141
23/02/2021 19:10 9.9 76 0.0 0 0.0 3.7 13.2 138
23/02/2021 19:20 9.6 77 0.0 0 0.0 2.9 10.5 135
23/02/2021 19:30 9.1 78 0.0 0 0.0 2.5 9.0 138
23/02/2021 19:40 9.2 79 0.0 0 0.0 2.2 7.8 176
23/02/2021 19:50 9.6 78 0.0 0 0.0 2.6 9.4 161
23/02/2021 20:00 9.4 79 0.0 0 0.0 2.6 9.3 160
23/02/2021 20:10 9.7 78 0.0 0 0.0 2.5 9.0 141
23/02/2021 20:20 9.4 79 0.0 0 0.0 2.2 8.0 112
23/02/2021 20:30 9.5 79 0.0 0 0.0 2.5 8.8 106
23/02/2021 20:40 9.3 80 0.0 0 0.0 2.4 8.7 103
23/02/2021 20:50 9.1 81 0.0 0 0.0 2.3 8.1 107
23/02/2021 21:00 9.0 82 0.0 0 0.0 2.1 7.6 129
23/02/2021 21:10 9.5 80 0.0 0 0.0 2.5 8.9 134
23/02/2021 21:20 10.0 78 0.0 0 0.0 2.5 8.8 131
23/02/2021 21:30 9.9 77 0.0 0 0.0 2.0 7.3 144
23/02/2021 21:40 9.2 80 0.0 0 0.0 1.8 6.6 152
23/02/2021 21:50 9.1 80 0.0 0 0.0 1.7 6.3 166
23/02/2021 22:00 8.7 82 0.0 0 0.0 1.8 6.6 185
23/02/2021 22:10 8.8 82 0.0 0 0.0 2.2 8.0 181
23/02/2021 22:20 8.8 82 0.0 0 0.0 2.7 9.6 174
23/02/2021 22:30 8.7 83 0.0 0 0.0 2.4 8.6 167
23/02/2021 22:40 8.6 84 0.0 0 0.0 2.9 10.5 139
23/02/2021 22:50 8.9 82 0.0 0 0.0 3.0 10.9 140
23/02/2021 23:00 9.1 81 0.0 0 0.0 3.3 11.8 135
23/02/2021 23:10 9.0 82 0.0 0 0.0 3.3 11.8 142
23/02/2021 23:20 9.0 83 0.0 0 0.0 4.0 14.5 137
23/02/2021 23:30 8.8 83 0.0 0 0.0 3.4 12.2 129
23/02/2021 23:40 8.7 84 0.0 0 0.0 3.5 12.6 127
23/02/2021 23:50 9.0 83 0.0 0 0.0 4.5 16.2 123
Anterior Página 1 de 1 Siguiente

NOTA: Tipo de datos según el color:
   - Valores diarios o 10 minutos correctos
   - Valores diarios calculados a partir de un número de datos 10 minutos menor que 144 y mayor que 120, o de un número de datos semihorarios menor que 48 y mayor que 40 (caso de las estaciones de INTIA Y Ministerio)
   - Valores diez minutos estimados


Contacto        Enlaces        Aviso legal